createdAt,value
2023-02-12T00:00:29.235Z,20.52
2023-02-12T00:02:33.648Z,21.45
2023-02-12T00:04:36.599Z,23.15
2023-02-12T00:06:40.135Z,23.58
2023-02-12T00:08:43.002Z,22.77
2023-02-12T00:10:45.759Z,21.95
2023-02-12T00:12:48.501Z,21.05
2023-02-12T00:14:51.257Z,24.10
2023-02-12T00:16:54.044Z,23.25
2023-02-12T00:18:59.417Z,23.05
2023-02-12T00:21:03.174Z,24.38
2023-02-12T00:23:06.618Z,22.35
2023-02-12T00:25:09.739Z,24.50
2023-02-12T00:27:12.492Z,24.13
2023-02-12T00:29:15.704Z,24.80
2023-02-12T00:31:20.531Z,25.63
2023-02-12T00:33:24.097Z,24.13
2023-02-12T00:35:28.212Z,25.55
2023-02-12T00:37:31.601Z,24.92
2023-02-12T00:39:36.487Z,25.55
2023-02-12T00:41:39.220Z,23.75
2023-02-12T00:43:42.250Z,23.10
2023-02-12T00:45:45.819Z,24.25
2023-02-12T00:47:48.541Z,25.85
2023-02-12T00:49:51.622Z,24.20
2023-02-12T00:51:55.722Z,25.27
2023-02-12T00:53:58.525Z,25.40
2023-02-12T00:56:01.423Z,24.67
2023-02-12T00:58:04.304Z,24.77
2023-02-12T01:00:08.368Z,24.30
2023-02-12T01:02:11.396Z,23.80
2023-02-12T01:04:14.334Z,25.85
2023-02-12T01:06:17.252Z,26.05
2023-02-12T01:08:23.425Z,25.80
2023-02-12T01:10:26.661Z,26.65
2023-02-12T01:12:29.466Z,24.30
2023-02-12T01:14:32.284Z,25.05
2023-02-12T01:16:36.550Z,24.88
2023-02-12T01:18:40.409Z,24.73
2023-02-12T01:20:43.306Z,28.15
2023-02-12T01:22:46.622Z,24.83
2023-02-12T01:24:50.774Z,27.23
2023-02-12T01:26:53.575Z,26.67
2023-02-12T01:28:58.566Z,26.20
2023-02-12T01:31:02.100Z,25.35
2023-02-12T01:33:05.049Z,25.52
2023-02-12T01:35:10.828Z,25.08
2023-02-12T01:37:14.458Z,24.98
2023-02-12T01:39:17.190Z,24.88
2023-02-12T01:41:22.977Z,30.55
2023-02-12T01:43:25.729Z,26.65
2023-02-12T01:45:46.657Z,25.45
2023-02-12T01:47:49.540Z,26.00
2023-02-12T01:49:52.280Z,25.65
2023-02-12T01:51:59.844Z,25.85
2023-02-12T01:54:06.318Z,25.23
2023-02-12T01:56:10.521Z,27.20
2023-02-12T01:58:16.680Z,25.40
2023-02-12T02:00:23.710Z,25.55
2023-02-12T02:02:28.515Z,26.42
2023-02-12T02:04:37.804Z,26.63
2023-02-12T02:06:47.826Z,26.50
2023-02-12T02:08:51.904Z,26.58
2023-02-12T02:10:54.689Z,25.65
2023-02-12T02:13:15.156Z,27.58
2023-02-12T02:15:18.463Z,27.42
2023-02-12T02:17:41.666Z,26.35
2023-02-12T02:20:32.955Z,26.75
2023-02-12T02:22:42.232Z,26.10
2023-02-12T02:25:00.975Z,26.10
2023-02-12T02:27:15.962Z,26.65
2023-02-12T02:29:31.868Z,24.38
2023-02-12T02:31:42.475Z,24.58
2023-02-12T02:33:55.887Z,23.35
2023-02-12T02:36:13.797Z,21.42
2023-02-12T02:38:26.642Z,25.42
2023-02-12T02:40:36.051Z,24.58
2023-02-12T02:42:43.494Z,28.58
2023-02-12T02:44:51.881Z,37.90
2023-02-12T02:46:58.988Z,39.55
2023-02-12T02:49:06.201Z,39.88
2023-02-12T02:51:13.157Z,34.83
2023-02-12T02:53:20.889Z,36.80
2023-02-12T02:55:26.649Z,35.25
2023-02-12T02:57:32.859Z,38.15
2023-02-12T02:59:39.408Z,77.32
2023-02-12T03:01:48.007Z,59.17
2023-02-12T03:03:57.861Z,51.65
2023-02-12T03:06:06.425Z,41.88
2023-02-12T03:08:14.346Z,40.55
2023-02-12T03:10:20.562Z,45.15
2023-02-12T03:12:28.710Z,41.50
2023-02-12T03:14:35.782Z,31.55
2023-02-12T03:16:42.589Z,27.73
2023-02-12T03:18:51.336Z,29.58
2023-02-12T03:21:01.128Z,32.70
2023-02-12T03:23:07.952Z,35.72
2023-02-12T03:25:15.189Z,33.13
2023-02-12T03:27:23.783Z,30.48
2023-02-12T03:29:27.295Z,27.95
2023-02-12T03:31:37.175Z,28.65
2023-02-12T03:33:47.839Z,30.60
2023-02-12T03:36:03.243Z,27.15
2023-02-12T03:38:12.935Z,27.90
2023-02-12T03:40:21.590Z,27.60
2023-02-12T03:42:34.017Z,27.05
2023-02-12T03:44:48.526Z,27.02
2023-02-12T03:46:59.481Z,28.05
2023-02-12T03:49:05.894Z,26.02
2023-02-12T03:51:18.445Z,27.80
2023-02-12T03:53:21.477Z,26.42
2023-02-12T03:55:24.843Z,26.20
2023-02-12T03:57:32.201Z,25.17
2023-02-12T03:59:37.094Z,27.00
2023-02-12T04:01:40.039Z,26.33
2023-02-12T04:03:42.972Z,26.75
2023-02-12T04:05:45.740Z,26.80
2023-02-12T04:07:50.918Z,27.13
2023-02-12T04:09:53.717Z,28.13
2023-02-12T04:12:10.623Z,26.45
2023-02-12T04:14:22.210Z,28.13
2023-02-12T04:16:30.813Z,27.55
2023-02-12T04:18:40.182Z,27.02
2023-02-12T04:20:54.052Z,28.55
2023-02-12T04:23:15.463Z,27.65
2023-02-12T04:25:29.743Z,40.78
2023-02-12T04:27:38.934Z,32.08
2023-02-12T04:29:49.749Z,37.30
2023-02-12T04:31:57.155Z,38.10
2023-02-12T04:34:09.213Z,30.67
2023-02-12T04:36:16.568Z,29.55
2023-02-12T04:38:25.811Z,29.42
2023-02-12T04:40:29.369Z,35.60
2023-02-12T04:42:32.209Z,35.40
2023-02-12T04:44:38.506Z,32.72
2023-02-12T04:46:41.257Z,31.85
2023-02-12T04:48:52.858Z,26.65
2023-02-12T04:50:55.581Z,25.75
2023-02-12T04:52:58.254Z,24.85
2023-02-12T04:55:02.339Z,27.88
2023-02-12T04:57:05.075Z,27.33
2023-02-12T04:59:07.859Z,28.05
2023-02-12T05:01:11.464Z,27.98
2023-02-12T05:03:14.202Z,27.80
2023-02-12T05:05:17.021Z,28.58
2023-02-12T05:07:19.815Z,27.65
2023-02-12T05:09:23.429Z,28.42
2023-02-12T05:11:27.568Z,29.83
2023-02-12T05:13:30.301Z,28.10
2023-02-12T05:15:33.036Z,27.25
2023-02-12T05:17:35.964Z,30.55
2023-02-12T05:19:38.662Z,29.60
2023-02-12T05:21:41.476Z,29.95
2023-02-12T05:23:44.846Z,27.50
2023-02-12T05:25:47.602Z,30.13
2023-02-12T05:27:51.663Z,29.15
2023-02-12T05:29:54.389Z,26.17
2023-02-12T05:31:57.209Z,27.50
2023-02-12T05:34:00.248Z,27.10
2023-02-12T05:36:06.967Z,28.05
2023-02-12T05:38:09.904Z,29.83
2023-02-12T05:40:13.491Z,30.80
2023-02-12T05:42:16.178Z,30.35
2023-02-12T05:44:20.242Z,32.13
2023-02-12T05:46:23.434Z,33.28
2023-02-12T05:48:26.198Z,31.25
2023-02-12T05:50:29.040Z,32.03
2023-02-12T05:52:35.865Z,32.25
2023-02-12T05:54:38.538Z,34.15
2023-02-12T05:56:44.412Z,33.50
2023-02-12T05:58:49.379Z,28.98
2023-02-12T06:00:53.400Z,29.25
2023-02-12T06:02:56.173Z,35.45
2023-02-12T06:04:58.874Z,40.13
2023-02-12T06:07:02.196Z,35.05
2023-02-12T06:09:05.110Z,33.20
2023-02-12T06:11:09.539Z,32.40
2023-02-12T06:13:13.241Z,30.17
2023-02-12T06:15:16.175Z,30.00
2023-02-12T06:17:20.342Z,28.25
2023-02-12T06:19:24.322Z,31.35
2023-02-12T06:21:28.008Z,27.60
2023-02-12T06:23:30.891Z,28.77
2023-02-12T06:25:33.660Z,27.52
2023-02-12T06:27:36.387Z,27.23
2023-02-12T06:29:39.157Z,27.80
2023-02-12T06:31:42.375Z,27.52
2023-02-12T06:33:46.609Z,26.77
2023-02-12T06:35:49.481Z,26.83
2023-02-12T06:37:52.220Z,27.75
2023-02-12T06:39:54.973Z,27.85
2023-02-12T06:41:57.800Z,27.98
2023-02-12T06:44:00.824Z,30.85
2023-02-12T06:46:05.131Z,30.30
2023-02-12T06:48:07.972Z,30.17
2023-02-12T06:50:12.630Z,30.40
2023-02-12T06:52:15.367Z,30.98
2023-02-12T06:54:19.041Z,35.05
2023-02-12T06:56:23.227Z,32.00
2023-02-12T06:58:26.065Z,31.67
2023-02-12T07:00:28.950Z,31.73
2023-02-12T07:02:31.739Z,29.20
2023-02-12T07:04:34.460Z,32.00
2023-02-12T07:06:38.548Z,31.88
2023-02-12T07:08:41.786Z,31.83
2023-02-12T07:10:44.913Z,32.67
2023-02-12T07:12:47.973Z,32.17
2023-02-12T07:14:50.691Z,31.75
2023-02-12T07:16:55.679Z,30.77
2023-02-12T07:18:59.699Z,29.90
2023-02-12T07:21:02.455Z,30.23
2023-02-12T07:23:06.561Z,32.03
2023-02-12T07:25:09.586Z,32.00
2023-02-12T07:27:12.347Z,30.13
2023-02-12T07:29:15.481Z,30.20
2023-02-12T07:31:20.735Z,30.58
2023-02-12T07:33:23.655Z,30.73
2023-02-12T07:35:26.475Z,31.38
2023-02-12T07:37:29.215Z,30.52
2023-02-12T07:39:33.307Z,30.05
2023-02-12T07:41:37.445Z,31.38
2023-02-12T07:43:40.799Z,31.00
2023-02-12T07:45:44.784Z,30.98
2023-02-12T07:47:47.559Z,30.85
2023-02-12T07:49:50.312Z,29.73
2023-02-12T07:51:53.042Z,29.95
2023-02-12T07:53:56.104Z,28.52
2023-02-12T07:56:11.214Z,28.45
2023-02-12T07:58:13.922Z,28.42
2023-02-12T08:00:17.742Z,27.52
2023-02-12T08:02:21.193Z,29.63
2023-02-12T08:04:25.344Z,27.20
2023-02-12T08:06:30.937Z,26.25
2023-02-12T08:08:33.728Z,26.50
2023-02-12T08:10:36.450Z,26.63
2023-02-12T08:12:40.542Z,27.58
2023-02-12T08:14:43.261Z,27.40
2023-02-12T08:16:47.678Z,28.38
2023-02-12T08:18:50.852Z,29.52
2023-02-12T08:20:53.561Z,27.70
2023-02-12T08:22:56.280Z,31.08
2023-02-12T08:24:58.993Z,30.80
2023-02-12T08:27:01.753Z,30.77
2023-02-12T08:29:09.007Z,32.70
2023-02-12T08:31:14.368Z,33.65
2023-02-12T08:33:17.107Z,31.05
2023-02-12T08:35:19.860Z,30.27
2023-02-12T08:37:22.554Z,30.75
2023-02-12T08:39:26.702Z,30.40
2023-02-12T08:41:31.236Z,29.85
2023-02-12T08:43:34.452Z,31.25
2023-02-12T08:45:38.581Z,29.33
2023-02-12T08:47:41.326Z,30.25
2023-02-12T08:49:44.048Z,29.80
2023-02-12T08:51:49.247Z,29.35
2023-02-12T08:53:54.431Z,29.75
2023-02-12T08:55:57.396Z,30.67
2023-02-12T08:58:01.274Z,31.25
2023-02-12T09:00:04.885Z,29.48
2023-02-12T09:02:11.419Z,27.88
2023-02-12T09:04:17.766Z,29.27
2023-02-12T09:06:23.087Z,29.35
2023-02-12T09:08:25.978Z,29.98
2023-02-12T09:10:28.695Z,30.35
2023-02-12T09:12:31.388Z,28.35
2023-02-12T09:14:34.077Z,29.52
2023-02-12T09:16:39.627Z,30.25
2023-02-12T09:18:45.100Z,30.10
2023-02-12T09:20:47.782Z,32.38
2023-02-12T09:22:50.778Z,29.92
2023-02-12T09:24:53.427Z,33.58
2023-02-12T09:26:56.316Z,27.00
2023-02-12T09:28:59.203Z,26.92
2023-02-12T09:31:06.314Z,28.33
2023-02-12T09:33:12.758Z,27.20
2023-02-12T09:35:18.368Z,26.33
2023-02-12T09:37:21.202Z,23.73
2023-02-12T09:39:24.035Z,23.65
2023-02-12T09:41:48.685Z,24.50
2023-02-12T09:43:57.497Z,23.23
2023-02-12T09:46:06.202Z,22.95
2023-02-12T09:48:30.818Z,22.77
2023-02-12T09:50:44.042Z,21.48
2023-02-12T09:52:47.519Z,18.63
2023-02-12T09:54:51.434Z,18.20
2023-02-12T09:56:58.387Z,19.85
2023-02-12T09:59:06.148Z,14.35
2023-02-12T10:01:13.870Z,13.95
2023-02-12T10:03:18.571Z,16.05
2023-02-12T10:05:27.735Z,13.57
2023-02-12T10:07:49.734Z,13.98
2023-02-12T10:10:14.479Z,13.82
2023-02-12T10:12:25.471Z,13.60
2023-02-12T10:14:52.891Z,11.43
2023-02-12T10:17:04.791Z,10.70
2023-02-12T10:19:24.006Z,11.55
2023-02-12T10:21:40.659Z,11.43
2023-02-12T10:24:00.556Z,11.63
2023-02-12T10:26:12.647Z,12.80
2023-02-12T10:28:19.627Z,10.38
2023-02-12T10:30:25.382Z,8.27
2023-02-12T10:32:31.745Z,7.90
2023-02-12T10:34:36.484Z,7.03
2023-02-12T10:36:43.717Z,7.50
2023-02-12T10:38:51.845Z,6.97
2023-02-12T10:40:57.535Z,7.18
2023-02-12T10:43:01.994Z,7.90
2023-02-12T10:45:05.208Z,8.23
2023-02-12T10:47:08.599Z,7.88
2023-02-12T10:49:14.415Z,12.48
2023-02-12T10:51:36.147Z,14.73
2023-02-12T10:53:40.931Z,7.43
2023-02-12T10:55:45.041Z,8.23
2023-02-12T10:57:47.831Z,7.18
2023-02-12T10:59:53.132Z,6.63
2023-02-12T11:01:55.967Z,7.55
2023-02-12T11:04:00.864Z,7.72
2023-02-12T11:06:14.577Z,7.30
2023-02-12T11:08:31.998Z,6.80
2023-02-12T11:10:39.459Z,6.15
2023-02-12T11:12:48.083Z,6.35
2023-02-12T11:14:51.946Z,7.30
2023-02-12T11:16:57.120Z,7.00
2023-02-12T11:19:02.095Z,7.85
2023-02-12T11:21:07.441Z,6.03
2023-02-12T11:23:26.274Z,6.28
2023-02-12T11:25:30.783Z,7.25
2023-02-12T11:27:33.514Z,7.07
2023-02-12T11:29:37.614Z,8.45
2023-02-12T11:31:41.605Z,9.27
2023-02-12T11:33:45.662Z,5.20
2023-02-12T11:35:54.503Z,5.65
2023-02-12T11:37:59.582Z,10.05
2023-02-12T11:40:02.394Z,9.43
2023-02-12T11:42:14.803Z,10.02
2023-02-12T11:44:21.750Z,8.68
2023-02-12T11:46:28.762Z,7.07
2023-02-12T11:48:34.922Z,6.30
2023-02-12T11:50:38.874Z,6.65
2023-02-12T11:52:42.222Z,7.25
2023-02-12T11:54:48.468Z,4.95
2023-02-12T11:56:51.552Z,5.05
2023-02-12T11:58:56.114Z,4.90
2023-02-12T12:01:19.693Z,9.88
2023-02-12T12:03:28.724Z,8.07
2023-02-12T12:05:36.294Z,5.40
2023-02-12T12:07:44.767Z,4.93
2023-02-12T12:09:52.497Z,4.70
2023-02-12T12:12:03.646Z,5.18
2023-02-12T12:14:15.301Z,4.72
2023-02-12T12:16:44.044Z,4.82
2023-02-12T12:19:11.133Z,5.15
2023-02-12T12:21:20.932Z,4.18
2023-02-12T12:23:31.330Z,4.78
2023-02-12T12:25:41.926Z,5.70
2023-02-12T12:28:05.455Z,5.13
2023-02-12T12:30:17.380Z,4.97
2023-02-12T12:32:22.265Z,5.63
2023-02-12T12:34:28.269Z,4.82
2023-02-12T12:37:04.760Z,4.80
2023-02-12T12:39:26.292Z,6.18
2023-02-12T12:41:42.495Z,8.80
2023-02-12T12:43:58.438Z,6.70
2023-02-12T12:46:14.457Z,5.22
2023-02-12T12:48:30.332Z,5.38
2023-02-12T12:50:51.744Z,5.35
2023-02-12T12:53:14.930Z,6.88
2023-02-12T12:55:31.205Z,7.45
2023-02-12T12:57:47.420Z,6.45
2023-02-12T13:00:09.225Z,6.90
2023-02-12T13:02:59.899Z,5.57
2023-02-12T13:05:30.714Z,5.70
2023-02-12T13:07:49.950Z,6.22
2023-02-12T13:10:02.816Z,6.53
2023-02-12T13:12:24.656Z,6.60
2023-02-12T13:14:43.379Z,7.10
2023-02-12T13:16:50.464Z,6.65
2023-02-12T13:19:05.702Z,7.60
2023-02-12T13:21:17.006Z,7.28
2023-02-12T13:23:29.302Z,7.10
2023-02-12T13:25:38.261Z,7.55
2023-02-12T13:27:42.335Z,7.78
2023-02-12T13:29:49.292Z,8.02
2023-02-12T13:31:56.211Z,7.80
2023-02-12T13:34:01.799Z,12.30
2023-02-12T13:36:07.241Z,9.90
2023-02-12T13:38:16.928Z,7.97
2023-02-12T13:40:24.198Z,8.53
2023-02-12T13:42:45.170Z,9.17
2023-02-12T13:44:56.549Z,8.90
2023-02-12T13:47:07.931Z,8.00
2023-02-12T13:49:19.976Z,8.57
2023-02-12T13:51:31.764Z,7.00
2023-02-12T13:53:46.185Z,7.13
2023-02-12T13:56:05.932Z,6.90
2023-02-12T13:58:47.721Z,7.03
2023-02-12T14:01:01.511Z,6.43
2023-02-12T14:03:10.005Z,6.10
2023-02-12T14:05:21.297Z,5.80
2023-02-12T14:07:24.516Z,5.67
2023-02-12T14:09:33.951Z,5.77
2023-02-12T14:11:49.634Z,5.30
2023-02-12T14:13:56.367Z,4.97
2023-02-12T14:15:59.885Z,5.00
2023-02-12T14:18:24.724Z,5.03
2023-02-12T14:20:30.647Z,4.77
2023-02-12T14:23:03.242Z,4.37
2023-02-12T14:25:33.368Z,5.23
2023-02-12T14:27:47.112Z,4.90
2023-02-12T14:30:02.581Z,5.37
2023-02-12T14:32:58.099Z,7.07
2023-02-12T14:35:30.582Z,4.90
2023-02-12T14:37:39.229Z,5.23
2023-02-12T14:39:41.995Z,5.30
2023-02-12T14:41:44.745Z,5.63
2023-02-12T14:44:03.801Z,4.77
2023-02-12T14:46:40.118Z,6.50
2023-02-12T14:48:52.478Z,4.17
2023-02-12T14:50:56.485Z,4.07
2023-02-12T14:53:06.050Z,5.83
2023-02-12T14:55:21.132Z,4.50
2023-02-12T14:57:27.079Z,4.97
2023-02-12T14:59:37.173Z,4.53
2023-02-12T15:01:40.253Z,4.53
2023-02-12T15:03:49.505Z,7.00
2023-02-12T15:06:09.457Z,5.20
2023-02-12T15:08:20.507Z,4.00
2023-02-12T15:10:25.962Z,4.70
2023-02-12T15:12:33.674Z,4.90
2023-02-12T15:14:43.517Z,4.63
2023-02-12T15:16:59.706Z,6.20
2023-02-12T15:19:11.908Z,7.27
2023-02-12T15:21:21.774Z,11.57
2023-02-12T15:23:37.842Z,6.10
2023-02-12T15:25:41.184Z,7.97
2023-02-12T15:27:44.617Z,10.73
2023-02-12T15:29:51.018Z,10.93
2023-02-12T15:31:56.254Z,5.43
2023-02-12T15:34:01.446Z,7.50
2023-02-12T15:36:05.661Z,4.90
2023-02-12T15:38:09.554Z,3.93
2023-02-12T15:40:16.172Z,3.80
2023-02-12T15:42:28.305Z,3.80
2023-02-12T15:44:32.932Z,3.73
2023-02-12T15:46:37.041Z,3.63
2023-02-12T15:48:40.500Z,3.70
2023-02-12T15:50:54.137Z,3.90
2023-02-12T15:52:57.588Z,12.43
2023-02-12T15:55:00.480Z,9.97
2023-02-12T15:57:11.441Z,7.13
2023-02-12T15:59:21.557Z,4.33
2023-02-12T16:01:25.906Z,3.87
2023-02-12T16:03:32.365Z,4.22
2023-02-12T16:05:35.738Z,6.05
2023-02-12T16:07:39.550Z,4.72
2023-02-12T16:09:43.783Z,5.20
2023-02-12T16:11:49.275Z,4.70
2023-02-12T16:13:54.999Z,4.32
2023-02-12T16:16:09.516Z,5.50
2023-02-12T16:18:24.641Z,8.43
2023-02-12T16:20:30.651Z,7.22
2023-02-12T16:22:35.012Z,7.38
2023-02-12T16:24:40.331Z,5.40
2023-02-12T16:26:47.711Z,5.20
2023-02-12T16:28:53.271Z,5.78
2023-02-12T16:31:09.191Z,6.22
2023-02-12T16:33:33.955Z,6.35
2023-02-12T16:35:38.351Z,6.70
2023-02-12T16:37:48.613Z,7.90
2023-02-12T16:40:21.397Z,5.72
2023-02-12T16:42:29.263Z,5.85
2023-02-12T16:44:34.386Z,22.90
2023-02-12T16:46:47.020Z,25.13
2023-02-12T16:48:52.698Z,12.10
2023-02-12T16:51:02.677Z,7.55
2023-02-12T16:53:08.050Z,5.88
2023-02-12T16:55:14.993Z,5.68
2023-02-12T16:57:17.711Z,5.32
2023-02-12T16:59:20.418Z,5.20
2023-02-12T17:01:26.089Z,6.45
2023-02-12T17:03:29.378Z,4.72
2023-02-12T17:05:32.212Z,5.80
2023-02-12T17:07:36.349Z,5.00
2023-02-12T17:09:39.114Z,4.88
2023-02-12T17:11:42.204Z,5.10
2023-02-12T17:13:46.201Z,5.28
2023-02-12T17:15:53.855Z,11.63
2023-02-12T17:17:56.770Z,10.73
2023-02-12T17:19:59.551Z,37.95
2023-02-12T17:22:03.568Z,9.73
2023-02-12T17:24:13.368Z,7.13
2023-02-12T17:26:16.602Z,7.35
2023-02-12T17:28:19.561Z,10.15
2023-02-12T17:30:24.155Z,17.45
2023-02-12T17:32:26.908Z,15.55
2023-02-12T17:34:34.123Z,10.18
2023-02-12T17:36:42.597Z,8.60
2023-02-12T17:38:45.438Z,5.95
2023-02-12T17:40:49.538Z,6.10
2023-02-12T17:42:52.390Z,5.65
2023-02-12T17:44:55.331Z,4.45
2023-02-12T17:46:58.919Z,5.00
2023-02-12T17:49:01.674Z,4.97
2023-02-12T17:51:04.668Z,5.07
2023-02-12T17:53:07.846Z,5.10
2023-02-12T17:55:13.749Z,5.90
2023-02-12T17:57:18.506Z,5.35
2023-02-12T17:59:21.268Z,5.45
2023-02-12T18:01:25.271Z,4.85
2023-02-12T18:03:28.114Z,5.10
2023-02-12T18:05:30.832Z,6.63
2023-02-12T18:07:34.474Z,25.50
2023-02-12T18:09:38.632Z,42.85
2023-02-12T18:11:42.340Z,15.77
2023-02-12T18:13:47.114Z,11.88
2023-02-12T18:15:49.895Z,9.85
2023-02-12T18:17:52.663Z,7.90
2023-02-12T18:19:55.678Z,7.60
2023-02-12T18:21:58.528Z,7.05
2023-02-12T18:24:01.450Z,7.50
2023-02-12T18:26:07.302Z,7.32
2023-02-12T18:28:10.590Z,9.13
2023-02-12T18:30:15.331Z,8.15
2023-02-12T18:32:18.119Z,8.60
2023-02-12T18:34:20.903Z,7.95
2023-02-12T18:36:24.092Z,8.45
2023-02-12T18:38:27.432Z,9.10
2023-02-12T18:40:30.246Z,9.95
2023-02-12T18:42:33.411Z,10.55
2023-02-12T18:44:36.958Z,11.85
2023-02-12T18:46:41.349Z,11.30
2023-02-12T18:48:44.798Z,9.90
2023-02-12T18:50:51.554Z,10.18
2023-02-12T18:52:55.655Z,10.82
2023-02-12T18:54:58.504Z,10.32
2023-02-12T18:57:01.250Z,9.82
2023-02-12T18:59:06.043Z,30.00
2023-02-12T19:01:16.893Z,19.98
2023-02-12T19:03:21.563Z,14.80
2023-02-12T19:05:26.265Z,12.00
2023-02-12T19:07:29.061Z,10.43
2023-02-12T19:09:31.817Z,10.27
2023-02-12T19:11:35.252Z,21.65
2023-02-12T19:13:38.811Z,22.88
2023-02-12T19:15:41.943Z,22.60
2023-02-12T19:17:44.841Z,22.55
2023-02-12T19:19:50.382Z,26.25
2023-02-12T19:21:53.139Z,22.08
2023-02-12T19:23:56.906Z,15.50
2023-02-12T19:26:04.337Z,13.60
2023-02-12T19:28:07.093Z,12.20
2023-02-12T19:30:10.654Z,11.00
2023-02-12T19:32:13.464Z,11.98
2023-02-12T19:34:19.519Z,11.32
2023-02-12T19:36:23.833Z,9.95
2023-02-12T19:38:26.905Z,9.98
2023-02-12T19:40:29.697Z,9.65
2023-02-12T19:42:33.745Z,8.43
2023-02-12T19:44:36.664Z,9.75
2023-02-12T19:46:40.560Z,9.98
2023-02-12T19:48:43.679Z,10.88
2023-02-12T19:50:46.746Z,9.60
2023-02-12T19:52:50.846Z,9.52
2023-02-12T19:54:53.856Z,7.75
2023-02-12T19:56:56.771Z,7.38
2023-02-12T19:58:59.616Z,6.93
2023-02-12T20:01:02.360Z,7.10
2023-02-12T20:03:05.219Z,7.38
2023-02-12T20:05:08.332Z,7.63
2023-02-12T20:07:11.414Z,7.47
2023-02-12T20:09:15.942Z,7.75
2023-02-12T20:11:20.876Z,7.18
2023-02-12T20:13:23.589Z,7.45
2023-02-12T20:15:26.431Z,6.88
2023-02-12T20:17:29.220Z,7.05
2023-02-12T20:19:33.106Z,7.50
2023-02-12T20:21:35.973Z,9.05
2023-02-12T20:23:39.574Z,13.63
2023-02-12T20:25:46.947Z,18.25
2023-02-12T20:27:50.956Z,27.00
2023-02-12T20:29:53.803Z,22.95
2023-02-12T20:31:56.825Z,19.02
2023-02-12T20:34:02.531Z,14.73
2023-02-12T20:36:05.930Z,12.27
2023-02-12T20:38:08.990Z,9.80
2023-02-12T20:40:12.499Z,8.38
2023-02-12T20:42:16.566Z,8.10
2023-02-12T20:44:21.256Z,8.10
2023-02-12T20:46:25.734Z,7.40
2023-02-12T20:48:28.507Z,8.70
2023-02-12T20:50:31.253Z,8.57
2023-02-12T20:52:34.365Z,8.35
2023-02-12T20:54:39.100Z,9.82
2023-02-12T20:56:41.919Z,9.32
2023-02-12T20:58:46.249Z,10.60
2023-02-12T21:00:49.046Z,16.67
2023-02-12T21:02:53.423Z,17.58
2023-02-12T21:04:56.370Z,17.90
2023-02-12T21:06:59.072Z,13.77
2023-02-12T21:09:02.352Z,10.70
2023-02-12T21:11:07.781Z,11.02
2023-02-12T21:13:10.519Z,12.20
2023-02-12T21:15:14.604Z,11.90
2023-02-12T21:17:17.691Z,10.70
2023-02-12T21:19:20.933Z,11.00
2023-02-12T21:21:25.696Z,9.35
2023-02-12T21:23:28.410Z,9.60
2023-02-12T21:25:31.129Z,8.90
2023-02-12T21:27:33.878Z,9.93
2023-02-12T21:29:36.648Z,8.90
2023-02-12T21:31:42.072Z,9.45
2023-02-12T21:33:46.744Z,8.90
2023-02-12T21:35:49.479Z,8.43
2023-02-12T21:37:52.160Z,8.75
2023-02-12T21:39:54.870Z,9.48
2023-02-12T21:41:59.957Z,8.80
2023-02-12T21:44:05.575Z,8.70
2023-02-12T21:46:09.194Z,9.63
2023-02-12T21:48:13.287Z,10.07
2023-02-12T21:50:16.177Z,10.13
2023-02-12T21:52:18.938Z,10.77
2023-02-12T21:54:22.574Z,9.63
2023-02-12T21:56:26.331Z,10.00
2023-02-12T21:58:29.066Z,9.85
2023-02-12T22:00:31.939Z,10.60
2023-02-12T22:02:34.866Z,10.98
2023-02-12T22:04:39.427Z,10.95
2023-02-12T22:06:45.953Z,11.23
2023-02-12T22:08:49.200Z,10.45
2023-02-12T22:10:51.963Z,11.70
2023-02-12T22:12:54.891Z,10.77
2023-02-12T22:14:57.646Z,11.45
2023-02-12T22:17:00.424Z,12.70
2023-02-12T22:19:04.180Z,12.60
2023-02-12T22:21:12.774Z,11.40
2023-02-12T22:23:15.892Z,12.90
2023-02-12T22:25:18.664Z,12.60
2023-02-12T22:27:21.409Z,11.50
2023-02-12T22:29:24.116Z,11.45
2023-02-12T22:31:29.362Z,12.00
2023-02-12T22:33:32.250Z,13.10
2023-02-12T22:35:34.990Z,14.80
2023-02-12T22:37:41.343Z,14.98
2023-02-12T22:39:44.156Z,17.00
2023-02-12T22:41:47.252Z,15.15
2023-02-12T22:43:50.387Z,14.02
2023-02-12T22:45:53.223Z,13.18
2023-02-12T22:47:55.951Z,12.75
2023-02-12T22:49:59.009Z,11.85
2023-02-12T22:52:01.744Z,12.05
2023-02-12T22:54:07.134Z,11.50
2023-02-12T22:56:10.194Z,11.68
2023-02-12T22:58:12.961Z,11.88
2023-02-12T23:00:16.930Z,12.00
2023-02-12T23:02:19.805Z,13.57
2023-02-12T23:04:22.654Z,12.07
2023-02-12T23:06:30.469Z,10.50
2023-02-12T23:08:33.801Z,10.77
2023-02-12T23:10:37.897Z,9.90
2023-02-12T23:12:40.689Z,11.75
2023-02-12T23:14:43.428Z,10.48
2023-02-12T23:16:46.373Z,10.15
2023-02-12T23:18:49.429Z,10.57
2023-02-12T23:20:53.138Z,11.32
2023-02-12T23:22:56.280Z,10.30
2023-02-12T23:24:59.107Z,10.68
2023-02-12T23:27:03.267Z,10.15
2023-02-12T23:29:05.994Z,10.45
2023-02-12T23:31:08.846Z,10.30
2023-02-12T23:33:11.734Z,10.85
2023-02-12T23:35:14.581Z,10.70
2023-02-12T23:37:17.302Z,10.63
2023-02-12T23:39:20.089Z,10.35
2023-02-12T23:41:22.808Z,9.98
2023-02-12T23:43:26.907Z,9.75
2023-02-12T23:45:29.967Z,9.50
2023-02-12T23:47:32.668Z,9.93
2023-02-12T23:49:36.956Z,9.40
2023-02-12T23:51:39.701Z,10.13
2023-02-12T23:53:42.462Z,10.07
2023-02-12T23:55:45.469Z,10.48
2023-02-12T23:57:49.734Z,10.45
2023-02-12T23:59:54.605Z,10.27
